Time;durP1;ratioP1;P1;durP2;ratioP2;P2;SDS_P1;SDS_P2;PMS_P1;PMS_P2;Temp;Humidity;BMP_temperature;BMP_pressure;BME280_temperature;BME280_humidity;BME280_pressure;Samples;Min_cycle;Max_cycle;Signal;HPM_P1;HPM_P2
2023/10/24 00:01:27;;;;;;;22.58;14.02;;;435.50;2355.20;;;;;;5096435;28;20032;-72
2023/10/24 00:03:53;;;;;;;23.52;14.57;;;435.50;2355.20;;;;;;5077872;28;20031;-73
2023/10/24 00:06:19;;;;;;;25.45;15.18;;;435.50;2355.20;;;;;;5095861;28;20044;-72
2023/10/24 00:08:46;;;;;;;25.13;14.10;;;435.30;2355.20;;;;;;5095760;28;20016;-73
2023/10/24 00:11:11;;;;;;;30.38;14.35;;;435.30;2355.20;;;;;;5090689;28;20449;-73
2023/10/24 00:16:16;;;;;;;23.98;14.80;;;435.30;2355.20;;;;;;3940524;22;20321;-72
2023/10/24 00:18:42;;;;;;;23.95;14.55;;;435.30;2355.20;;;;;;5048283;28;20028;-73
2023/10/24 00:21:07;;;;;;;25.80;15.32;;;435.60;2355.20;;;;;;5065564;28;20164;-74
2023/10/24 00:23:33;;;;;;;25.98;15.52;;;435.80;2355.20;;;;;;5054602;28;20032;-74
2023/10/24 00:25:59;;;;;;;23.35;15.13;;;435.70;2355.20;;;;;;5054127;28;20033;-74
2023/10/24 00:28:24;;;;;;;24.05;15.23;;;435.60;2355.20;;;;;;5054409;28;20535;-73
2023/10/24 00:30:50;;;;;;;24.20;13.88;;;435.60;2355.20;;;;;;5054444;28;20067;-74
2023/10/24 00:33:16;;;;;;;21.30;15.10;;;435.80;2355.20;;;;;;5054151;28;20355;-74
2023/10/24 00:35:42;;;;;;;27.08;15.23;;;435.50;2355.20;;;;;;5054125;28;20549;-74
2023/10/24 00:38:07;;;;;;;23.85;15.15;;;435.30;2355.20;;;;;;5053144;28;20025;-74
2023/10/24 00:40:36;;;;;;;23.60;15.02;;;435.20;2355.20;;;;;;5054160;28;20020;-73
2023/10/24 00:43:04;;;;;;;26.65;16.00;;;435.20;2355.20;;;;;;5054192;28;20090;-75
2023/10/24 00:45:30;;;;;;;25.98;14.63;;;410.50;2355.20;;;;;;5052520;28;20021;-74
2023/10/24 00:47:56;;;;;;;25.50;16.08;;;410.50;2355.20;;;;;;5052678;28;20044;-74
2023/10/24 00:50:21;;;;;;;26.88;15.60;;;410.40;2355.20;;;;;;5054567;28;20462;-74
2023/10/24 00:52:48;;;;;;;22.17;14.40;;;410.20;2355.20;;;;;;5053621;28;20024;-75
2023/10/24 00:55:14;;;;;;;27.02;16.40;;;410.20;2355.20;;;;;;5054104;28;20381;-75
2023/10/24 00:57:40;;;;;;;23.60;14.63;;;410.10;2355.20;;;;;;5053620;28;20036;-73
2023/10/24 01:00:07;;;;;;;27.73;16.35;;;410.00;2355.20;;;;;;5053707;28;20119;-74
2023/10/24 01:02:33;;;;;;;24.83;14.30;;;410.10;2355.20;;;;;;5053868;28;20021;-74
2023/10/24 01:05:00;;;;;;;28.23;15.65;;;410.10;2355.20;;;;;;5053673;28;20021;-74
2023/10/24 01:07:26;;;;;;;26.60;16.05;;;410.00;2355.20;;;;;;5052411;28;20021;-74
2023/10/24 01:09:51;;;;;;;25.00;15.60;;;410.10;2355.20;;;;;;5053806;28;20029;-74
2023/10/24 01:12:17;;;;;;;27.17;15.68;;;410.00;2355.20;;;;;;5053606;28;20013;-75
2023/10/24 01:14:43;;;;;;;27.70;14.60;;;410.10;2355.20;;;;;;5053517;28;20048;-75
2023/10/24 01:17:13;;;;;;;29.08;15.68;;;410.10;2355.20;;;;;;5053174;28;20084;-74
2023/10/24 01:19:39;;;;;;;26.77;15.70;;;410.00;2355.20;;;;;;5053374;28;20108;-74
2023/10/24 01:22:05;;;;;;;23.10;16.08;;;410.00;2355.20;;;;;;5053128;28;20032;-75
2023/10/24 01:24:31;;;;;;;31.58;16.23;;;410.00;2355.20;;;;;;5052195;28;20025;-75
2023/10/24 01:26:57;;;;;;;28.73;16.73;;;409.90;2355.20;;;;;;5053086;28;20029;-75
2023/10/24 01:29:23;;;;;;;21.13;15.07;;;410.00;2355.20;;;;;;5053476;28;20021;-73
2023/10/24 01:31:49;;;;;;;22.92;13.68;;;409.90;2355.20;;;;;;5052879;28;20459;-75
2023/10/24 01:34:15;;;;;;;29.25;14.80;;;410.00;2355.20;;;;;;5052447;28;20437;-75
2023/10/24 01:36:41;;;;;;;21.95;14.50;;;410.10;2355.20;;;;;;5053013;28;20021;-75
2023/10/24 01:39:07;;;;;;;24.75;13.57;;;410.30;2355.20;;;;;;5053190;28;20028;-74
2023/10/24 01:41:34;;;;;;;23.50;14.23;;;410.20;2355.20;;;;;;5052899;28;20031;-73
2023/10/24 01:43:59;;;;;;;24.95;14.32;;;410.30;2355.20;;;;;;5053035;28;20021;-72
2023/10/24 01:46:25;;;;;;;19.05;12.77;;;410.30;2355.20;;;;;;5052594;28;20124;-74
2023/10/24 01:48:51;;;;;;;16.85;12.35;;;410.50;2355.20;;;;;;5052607;28;20017;-74
2023/10/24 01:51:17;;;;;;;25.63;14.65;;;435.20;2355.20;;;;;;5052887;28;20505;-74
2023/10/24 01:53:43;;;;;;;22.25;14.02;;;410.50;2355.20;;;;;;5052662;28;20036;-75
2023/10/24 01:56:11;;;;;;;23.05;13.98;;;410.50;2355.20;;;;;;5052714;28;20028;-74
2023/10/24 01:58:36;;;;;;;28.77;14.98;;;410.50;2355.20;;;;;;5052669;28;20025;-72
2023/10/24 02:01:02;;;;;;;22.98;13.93;;;410.50;2355.20;;;;;;5052369;28;20043;-74
2023/10/24 02:03:28;;;;;;;20.60;14.82;;;410.50;2355.20;;;;;;5052643;28;20126;-73
2023/10/24 02:05:54;;;;;;;29.83;15.50;;;435.20;2355.20;;;;;;5052599;28;20482;-73
2023/10/24 02:08:19;;;;;;;21.42;14.13;;;410.50;2355.20;;;;;;5052208;28;20100;-73
2023/10/24 02:10:45;;;;;;;18.35;13.55;;;410.50;2355.20;;;;;;5052555;28;20088;-73
2023/10/24 02:13:11;;;;;;;27.25;15.35;;;410.50;2355.20;;;;;;5052363;28;20392;-73
2023/10/24 02:15:37;;;;;;;27.25;15.27;;;410.50;2355.20;;;;;;5052057;28;20462;-73
2023/10/24 02:18:03;;;;;;;26.83;16.23;;;410.40;2355.20;;;;;;5052272;28;20414;-73
2023/10/24 02:20:29;;;;;;;24.63;15.30;;;410.20;2355.20;;;;;;5052058;28;20021;-72
2023/10/24 02:22:54;;;;;;;20.52;14.52;;;410.10;2355.20;;;;;;5052534;28;20535;-74
2023/10/24 02:25:20;;;;;;;22.95;14.50;;;410.00;2355.20;;;;;;5051877;28;20033;-74
2023/10/24 02:27:46;;;;;;;24.85;14.38;;;409.90;2355.20;;;;;;5052359;28;20029;-73
2023/10/24 02:30:12;;;;;;;20.38;14.35;;;410.00;2355.20;;;;;;5051927;28;20021;-75
2023/10/24 02:32:38;;;;;;;26.42;15.65;;;409.90;2355.20;;;;;;5052084;28;20053;-74
2023/10/24 02:35:04;;;;;;;23.83;14.65;;;409.80;2355.20;;;;;;5052056;28;20028;-74
2023/10/24 02:37:29;;;;;;;32.17;17.48;;;409.80;2355.20;;;;;;5052147;28;20028;-73
2023/10/24 02:39:55;;;;;;;23.02;16.65;;;409.70;2355.20;;;;;;5051686;28;20017;-74
2023/10/24 02:42:21;;;;;;;27.35;15.68;;;409.60;2355.20;;;;;;5052044;28;20029;-73
2023/10/24 02:44:49;;;;;;;28.42;15.88;;;409.70;2355.20;;;;;;5051630;28;20374;-73
2023/10/24 02:47:15;;;;;;;23.92;15.73;;;409.70;2355.20;;;;;;5051540;28;20037;-73
2023/10/24 02:49:41;;;;;;;24.13;16.38;;;409.70;2355.20;;;;;;5051833;28;20107;-74
2023/10/24 02:52:07;;;;;;;29.98;16.40;;;409.70;2355.20;;;;;;5051767;28;20036;-75
2023/10/24 02:54:33;;;;;;;28.17;17.63;;;409.70;2355.20;;;;;;5051690;28;20017;-74
2023/10/24 02:56:58;;;;;;;27.02;16.35;;;409.70;2355.20;;;;;;5051901;28;20022;-74
2023/10/24 02:59:24;;;;;;;24.60;14.85;;;409.80;2355.20;;;;;;5051887;28;20028;-74
2023/10/24 03:01:50;;;;;;;25.83;17.15;;;409.80;2355.20;;;;;;5050872;28;20017;-74
2023/10/24 03:04:16;;;;;;;28.65;15.88;;;409.90;2355.20;;;;;;5050457;28;20037;-74
2023/10/24 03:06:41;;;;;;;30.75;16.85;;;409.90;2355.20;;;;;;5051538;28;20115;-74
2023/10/24 03:09:08;;;;;;;28.00;16.35;;;409.90;2355.20;;;;;;5051706;28;20024;-74
2023/10/24 03:11:33;;;;;;;24.20;17.00;;;409.90;2355.20;;;;;;5051413;28;20025;-73
2023/10/24 03:13:59;;;;;;;32.22;17.92;;;409.80;2355.20;;;;;;5050413;28;20020;-72
2023/10/24 03:16:25;;;;;;;29.48;16.23;;;409.70;2355.20;;;;;;5051478;28;20079;-73
2023/10/24 03:18:51;;;;;;;34.47;18.05;;;409.60;2355.20;;;;;;5051384;28;20074;-74
2023/10/24 03:21:17;;;;;;;30.65;17.20;;;409.60;2355.20;;;;;;5051731;28;20025;-73
2023/10/24 03:23:45;;;;;;;31.25;16.48;;;384.90;2329.60;;;;;;5051261;28;20021;-73
2023/10/24 03:26:11;;;;;;;33.35;17.27;;;384.90;2329.60;;;;;;5051643;28;20052;-73
2023/10/24 03:28:37;;;;;;;30.60;16.80;;;384.80;2329.60;;;;;;5051280;28;20025;-73
2023/10/24 03:31:05;;;;;;;29.33;17.65;;;384.80;2329.60;;;;;;5051889;28;20107;-73
2023/10/24 03:33:31;;;;;;;30.02;17.67;;;384.80;2329.60;;;;;;5050839;28;20375;-73
2023/10/24 03:35:57;;;;;;;27.42;17.58;;;384.90;2329.60;;;;;;5050198;28;20119;-73
2023/10/24 03:38:23;;;;;;;29.45;18.20;;;384.70;2329.60;;;;;;5051371;28;20052;-73
2023/10/24 03:40:49;;;;;;;26.80;16.23;;;384.70;2329.60;;;;;;5049892;28;20410;-73
2023/10/24 03:43:16;;;;;;;26.08;16.83;;;384.90;2329.60;;;;;;5050083;28;20091;-73
2023/10/24 03:45:41;;;;;;;26.08;17.23;;;384.80;2329.60;;;;;;5051152;28;20122;-73
2023/10/24 03:48:07;;;;;;;29.45;17.63;;;384.70;2329.60;;;;;;5051060;28;20060;-73
2023/10/24 03:50:37;;;;;;;29.00;17.08;;;384.70;2329.60;;;;;;5051095;28;20067;-71
2023/10/24 03:53:06;;;;;;;25.67;17.20;;;384.70;2329.60;;;;;;5051226;28;20079;-73
2023/10/24 03:55:32;;;;;;;28.38;16.88;;;384.70;2329.60;;;;;;5051072;28;20078;-72
2023/10/24 03:57:58;;;;;;;26.27;16.83;;;384.70;2329.60;;;;;;5051248;28;20053;-73
2023/10/24 04:00:24;;;;;;;25.20;16.60;;;384.70;2329.60;;;;;;5050060;28;20538;-72
2023/10/24 04:02:51;;;;;;;31.38;18.05;;;384.70;2329.60;;;;;;5057167;28;20027;-73
2023/10/24 04:05:17;;;;;;;26.98;17.33;;;384.80;2329.60;;;;;;5057987;28;20466;-73
2023/10/24 04:07:43;;;;;;;22.50;16.15;;;384.70;2329.60;;;;;;5050730;28;20025;-73
2023/10/24 04:10:09;;;;;;;25.67;16.38;;;384.80;2329.60;;;;;;5049828;28;20437;-73
2023/10/24 04:12:34;;;;;;;27.17;16.58;;;384.70;2329.60;;;;;;5050833;28;20031;-73
2023/10/24 04:15:00;;;;;;;26.00;15.27;;;384.70;2329.60;;;;;;5053643;28;20382;-72
2023/10/24 04:17:26;;;;;;;29.80;15.82;;;384.60;2329.60;;;;;;5053800;28;20124;-73
2023/10/24 04:19:51;;;;;;;35.35;17.25;;;384.60;2329.60;;;;;;5054746;28;20057;-73
2023/10/24 04:22:17;;;;;;;23.90;14.27;;;384.60;2329.60;;;;;;5054398;28;20029;-74
2023/10/24 04:24:43;;;;;;;27.98;14.43;;;384.50;2329.60;;;;;;5054702;28;20021;-73
2023/10/24 04:27:09;;;;;;;32.33;14.93;;;384.50;2329.60;;;;;;5053232;28;20133;-72
2023/10/24 04:29:35;;;;;;;25.17;14.43;;;384.40;2329.60;;;;;;5052989;28;20478;-73
2023/10/24 04:32:01;;;;;;;20.30;13.82;;;384.40;2329.60;;;;;;5054300;28;20059;-73
2023/10/24 04:34:27;;;;;;;23.92;14.20;;;384.40;2329.60;;;;;;5054401;28;20108;-73
2023/10/24 04:36:53;;;;;;;30.00;17.27;;;384.40;2329.60;;;;;;5054096;28;20029;-74
2023/10/24 04:39:19;;;;;;;22.40;13.90;;;384.40;2329.60;;;;;;5054179;28;20021;-74
2023/10/24 04:41:47;;;;;;;23.13;15.27;;;384.40;2329.60;;;;;;5040886;28;20017;-73
2023/10/24 04:44:13;;;;;;;25.27;13.80;;;384.40;2329.60;;;;;;5052486;28;20066;-74
2023/10/24 04:46:40;;;;;;;24.27;14.48;;;384.40;2329.60;;;;;;5040907;28;20116;-74
2023/10/24 04:49:06;;;;;;;28.95;15.70;;;384.40;2329.60;;;;;;5053807;28;20025;-73
2023/10/24 04:51:32;;;;;;;21.88;14.77;;;384.30;2329.60;;;;;;5053948;28;20087;-74
2023/10/24 04:53:58;;;;;;;24.55;13.50;;;384.30;2329.60;;;;;;5054055;28;20429;-73
2023/10/24 04:56:24;;;;;;;21.58;13.38;;;384.30;2329.60;;;;;;5053836;28;20107;-73
2023/10/24 04:58:50;;;;;;;24.67;14.70;;;384.20;2329.60;;;;;;5053772;28;20029;-74
2023/10/24 05:01:16;;;;;;;19.80;13.45;;;384.20;2329.60;;;;;;5053743;28;20021;-74
2023/10/24 05:03:42;;;;;;;23.23;13.50;;;384.20;2329.60;;;;;;5053434;28;20021;-73
2023/10/24 05:06:08;;;;;;;25.63;14.30;;;384.30;2329.60;;;;;;5053388;28;20418;-73
2023/10/24 05:08:34;;;;;;;27.45;13.68;;;384.20;2329.60;;;;;;5040657;28;20529;-73
2023/10/24 05:11:01;;;;;;;23.52;13.70;;;384.20;2329.60;;;;;;5053552;28;20171;-74
2023/10/24 05:13:27;;;;;;;25.02;13.75;;;;;;;;;;5053514;28;20043;-74
2023/10/24 05:15:53;;;;;;;28.45;13.60;;;384.20;2329.60;;;;;;5053138;28;20028;-73
2023/10/24 05:18:18;;;;;;;25.95;13.48;;;384.00;2329.60;;;;;;5042177;28;20041;-72
2023/10/24 05:20:45;;;;;;;30.75;15.90;;;384.00;2329.60;;;;;;5041462;28;20121;-72
2023/10/24 05:23:11;;;;;;;32.83;16.63;;;384.00;2329.60;;;;;;5047601;28;20059;-73
2023/10/24 05:25:37;;;;;;;32.10;18.15;;;384.10;2329.60;;;;;;5040382;28;20029;-73
2023/10/24 05:28:02;;;;;;;27.92;14.80;;;384.20;2329.60;;;;;;5042194;28;20390;-73
2023/10/24 05:30:28;;;;;;;26.50;13.50;;;384.20;2329.60;;;;;;5039742;28;20028;-73
2023/10/24 05:32:55;;;;;;;24.30;12.13;;;384.20;2329.60;;;;;;5039694;28;20022;-73
2023/10/24 05:35:21;;;;;;;19.58;12.27;;;384.30;2329.60;;;;;;5045202;28;20541;-74
2023/10/24 05:37:46;;;;;;;19.67;10.82;;;384.30;2329.60;;;;;;5041582;28;20053;-73
2023/10/24 05:40:12;;;;;;;22.05;11.38;;;384.20;2329.60;;;;;;5042056;28;20063;-73
2023/10/24 05:42:38;;;;;;;18.77;10.85;;;384.20;2329.60;;;;;;5044781;28;20029;-73
2023/10/24 05:45:04;;;;;;;20.95;10.68;;;384.20;2329.60;;;;;;5042361;28;20022;-74
2023/10/24 05:47:29;;;;;;;21.65;11.13;;;384.20;2329.60;;;;;;5052504;28;20033;-75
2023/10/24 05:49:55;;;;;;;20.30;10.93;;;384.20;2329.60;;;;;;5047472;28;20367;-74
2023/10/24 05:52:21;;;;;;;20.58;10.35;;;384.20;2329.60;;;;;;5045935;28;20028;-78
2023/10/24 05:54:46;;;;;;;19.17;10.63;;;384.40;2329.60;;;;;;5042306;28;20105;-75
2023/10/24 05:57:12;;;;;;;21.30;10.35;;;384.40;2329.60;;;;;;5039881;28;20080;-76
2023/10/24 05:59:38;;;;;;;23.05;10.63;;;384.50;2329.60;;;;;;5046357;28;20025;-78
2023/10/24 06:02:04;;;;;;;19.20;9.55;;;384.60;2329.60;;;;;;5043540;28;20402;-77
2023/10/24 06:04:34;;;;;;;18.20;10.38;;;384.60;2329.60;;;;;;5035516;28;20037;-76
2023/10/24 06:07:00;;;;;;;16.20;9.07;;;384.80;2329.60;;;;;;5043337;28;20075;-76
2023/10/24 06:09:25;;;;;;;13.90;8.45;;;384.80;2329.60;;;;;;5043698;28;20025;-75
2023/10/24 06:11:52;;;;;;;17.80;9.25;;;384.90;2329.60;;;;;;5042558;28;20025;-76
2023/10/24 06:14:18;;;;;;;15.45;9.05;;;384.90;2329.60;;;;;;5042194;28;20078;-75
2023/10/24 06:16:43;;;;;;;14.68;8.57;;;384.90;2329.60;;;;;;5044072;28;20410;-76
2023/10/24 06:19:09;;;;;;;16.00;8.65;;;384.90;2329.60;;;;;;5034142;28;20500;-77
2023/10/24 06:21:35;;;;;;;19.15;9.18;;;409.60;2355.20;;;;;;5040994;28;20021;-77
2023/10/24 06:24:01;;;;;;;18.05;10.07;;;409.70;2355.20;;;;;;5050293;28;20142;-78
2023/10/24 06:26:27;;;;;;;15.75;9.35;;;409.70;2355.20;;;;;;5038646;28;20033;-77
2023/10/24 06:28:52;;;;;;;17.80;8.10;;;409.80;2355.20;;;;;;5042702;28;20021;-76
2023/10/24 06:31:18;;;;;;;18.10;9.45;;;409.90;2355.20;;;;;;5038352;28;20179;-76
2023/10/24 06:33:44;;;;;;;14.90;9.00;;;409.90;2355.20;;;;;;5042348;28;20021;-76
2023/10/24 06:36:10;;;;;;;18.27;8.85;;;410.00;2355.20;;;;;;5043186;28;20039;-75
2023/10/24 06:38:35;;;;;;;13.05;9.35;;;410.10;2355.20;;;;;;5046074;28;20025;-76
2023/10/24 06:41:01;;;;;;;16.23;9.27;;;410.10;2355.20;;;;;;5048809;28;20078;-76
2023/10/24 06:43:27;;;;;;;13.90;7.70;;;410.20;2355.20;;;;;;5040560;28;20017;-75
2023/10/24 06:45:53;;;;;;;18.45;7.75;;;410.10;2355.20;;;;;;5040161;28;20025;-75
2023/10/24 06:48:19;;;;;;;16.25;8.55;;;410.20;2355.20;;;;;;5042608;28;20049;-77
2023/10/24 06:50:45;;;;;;;14.50;8.02;;;410.20;2355.20;;;;;;5037973;28;20087;-75
2023/10/24 06:53:12;;;;;;;27.60;9.43;;;410.20;2355.20;;;;;;5035875;28;20037;-75
2023/10/24 06:55:37;;;;;;;16.70;8.27;;;410.30;2355.20;;;;;;5050525;28;20086;-73
2023/10/24 06:58:04;;;;;;;13.52;8.23;;;410.50;2355.20;;;;;;5051196;28;20413;-75
2023/10/24 07:00:30;;;;;;;20.75;8.55;;;410.50;2355.20;;;;;;5041539;28;20060;-79
2023/10/24 07:02:56;;;;;;;15.75;7.78;;;410.50;2355.20;;;;;;5039556;28;20049;-77
2023/10/24 07:05:22;;;;;;;13.95;7.28;;;410.50;2355.20;;;;;;5042912;28;20037;-78
2023/10/24 07:07:48;;;;;;;17.98;7.93;;;410.50;2355.20;;;;;;5045018;28;20055;-78
2023/10/24 07:10:14;;;;;;;17.55;7.40;;;435.20;2355.20;;;;;;5047359;28;20034;-76
2023/10/24 07:12:40;;;;;;;15.50;8.93;;;435.20;2355.20;;;;;;5043702;28;20022;-78
2023/10/24 07:15:08;;;;;;;16.52;7.82;;;435.20;2355.20;;;;;;5036606;28;20455;-77
2023/10/24 07:17:35;;;;;;;17.50;7.30;;;435.20;2355.20;;;;;;5038365;28;20085;-77
2023/10/24 07:20:01;;;;;;;17.67;7.47;;;435.20;2355.20;;;;;;5048230;28;20017;-76
2023/10/24 07:22:28;;;;;;;15.90;7.97;;;435.30;2355.20;;;;;;5032567;28;20425;-78
2023/10/24 07:24:54;;;;;;;15.75;6.82;;;435.50;2355.20;;;;;;5042007;28;20013;-78
2023/10/24 07:27:21;;;;;;;16.73;7.25;;;435.60;2355.20;;;;;;5037378;28;20034;-77
2023/10/24 07:29:46;;;;;;;13.10;6.78;;;435.70;2355.20;;;;;;5040662;28;20037;-76
2023/10/24 07:32:13;;;;;;;20.77;7.97;;;435.80;2355.20;;;;;;5030439;28;20030;-77
2023/10/24 07:34:41;;;;;;;14.15;6.25;;;436.00;2355.20;;;;;;5039521;28;20033;-77
2023/10/24 07:37:10;;;;;;;15.73;7.15;;;436.10;2355.20;;;;;;5034591;28;20383;-78
2023/10/24 07:39:36;;;;;;;16.38;7.03;;;436.00;2355.20;;;;;;5048810;28;20025;-78
2023/10/24 07:53:03;;;;;;;12.50;7.20;;;436.10;2355.20;;;;;;5125727;27;20419;-76
2023/10/24 07:55:29;;;;;;;11.23;6.60;;;461.40;2380.80;;;;;;5129626;28;20031;-77
2023/10/24 07:57:55;;;;;;;17.10;6.72;;;461.30;2380.80;;;;;;5119731;27;20023;-78
2023/10/24 08:00:21;;;;;;;16.48;7.70;;;461.40;2380.80;;;;;;5119590;27;20024;-74
2023/10/24 08:02:46;;;;;;;15.60;6.72;;;461.40;2380.80;;;;;;5118069;28;20036;-75
2023/10/24 08:05:12;;;;;;;11.65;6.53;;;461.40;2380.80;;;;;;5122357;28;20036;-74
2023/10/24 08:07:38;;;;;;;15.63;7.20;;;461.40;2380.80;;;;;;5113203;28;20035;-77
2023/10/24 08:10:04;;;;;;;33.97;14.93;;;461.40;2380.80;;;;;;5115107;28;20023;-75
2023/10/24 08:12:29;;;;;;;18.73;9.45;;;461.50;2380.80;;;;;;5112671;28;20040;-75
2023/10/24 08:14:55;;;;;;;15.48;6.72;;;461.50;2380.80;;;;;;5117866;28;20522;-75
2023/10/24 08:17:21;;;;;;;17.85;9.55;;;461.50;2380.80;;;;;;5118380;28;20024;-75
2023/10/24 08:19:46;;;;;;;26.52;13.38;;;486.40;2380.80;;;;;;5122866;28;20024;-76
2023/10/24 08:22:12;;;;;;;31.50;11.32;;;486.50;2380.80;;;;;;5116903;28;20048;-73
2023/10/24 08:24:38;;;;;;;13.90;6.70;;;486.60;2380.80;;;;;;5115691;28;20027;-77
2023/10/24 08:27:04;;;;;;;12.68;6.85;;;486.70;2380.80;;;;;;5120148;28;20126;-77
2023/10/24 08:29:30;;;;;;;14.63;7.28;;;486.80;2380.80;;;;;;5116793;28;20035;-74
2023/10/24 08:31:55;;;;;;;22.00;6.40;;;486.80;2380.80;;;;;;5118256;28;20391;-74
2023/10/24 08:34:21;;;;;;;20.67;6.60;;;486.80;2380.80;;;;;;5119993;28;20024;-75
2023/10/24 08:36:47;;;;;;;21.02;8.40;;;487.00;2380.80;;;;;;5116744;28;20042;-74
2023/10/24 08:39:12;;;;;;;27.20;12.18;;;487.10;2380.80;;;;;;5117000;28;20050;-74
2023/10/24 08:41:39;;;;;;;29.42;13.75;;;487.10;2380.80;;;;;;5118126;28;20035;-77
2023/10/24 08:44:05;;;;;;;24.70;12.65;;;487.10;2380.80;;;;;;5127198;27;20468;-77
2023/10/24 08:46:32;;;;;;;26.67;11.48;;;487.10;2380.80;;;;;;5112087;28;20119;-77
2023/10/24 08:48:59;;;;;;;25.30;9.45;;;487.10;2380.80;;;;;;5119203;28;20024;-75
2023/10/24 08:51:25;;;;;;;17.23;9.65;;;487.20;2380.80;;;;;;5122188;28;20069;-74
2023/10/24 08:53:50;;;;;;;17.17;9.18;;;487.30;2380.80;;;;;;5106895;28;20032;-77
2023/10/24 08:56:16;;;;;;;18.20;9.20;;;512.20;2380.80;;;;;;5088319;28;20020;-77
2023/10/24 08:58:45;;;;;;;19.52;8.18;;;512.20;2380.80;;;;;;5098984;28;20431;-74
2023/10/24 09:01:12;;;;;;;13.45;6.82;;;512.40;2380.80;;;;;;5103385;28;20060;-76
2023/10/24 09:03:38;;;;;;;18.67;6.95;;;512.50;2380.80;;;;;;5109863;28;20085;-78
2023/10/24 09:06:05;;;;;;;16.13;7.10;;;512.70;2380.80;;;;;;5103205;28;20485;-78
2023/10/24 09:08:32;;;;;;;16.15;7.53;;;537.60;2406.40;;;;;;5107038;28;20050;-78
2023/10/24 09:10:58;;;;;;;21.10;10.05;;;537.70;2406.40;;;;;;5100265;28;20020;-76
2023/10/24 09:13:25;;;;;;;18.75;8.38;;;537.80;2406.40;;;;;;5102016;28;20028;-77
2023/10/24 09:16:11;;;;;;;12.90;6.63;;;537.80;2406.40;;;;;;5098357;28;20035;-78
2023/10/24 09:18:40;;;;;;;16.00;6.63;;;537.90;2406.40;;;;;;5102465;28;20055;-78
2023/10/24 09:21:07;;;;;;;11.13;5.22;;;537.80;2406.40;;;;;;5083087;28;20367;-78
2023/10/24 09:23:35;;;;;;;10.38;5.00;;;537.80;2406.40;;;;;;5103132;28;20530;-77
2023/10/24 09:26:06;;;;;;;14.88;5.85;;;537.90;2406.40;;;;;;5099116;28;20028;-75
2023/10/24 09:28:33;;;;;;;13.15;7.15;;;538.10;2406.40;;;;;;5100158;28;20031;-75
2023/10/24 09:30:59;;;;;;;15.10;6.93;;;538.50;2406.40;;;;;;5106988;28;20026;-75
2023/10/24 09:33:28;;;;;;;18.63;6.75;;;563.30;2432.00;;;;;;5103073;28;20028;-76
2023/10/24 09:35:56;;;;;;;20.95;5.80;;;563.60;2432.00;;;;;;5100141;28;20031;-76
2023/10/24 09:38:24;;;;;;;9.85;4.40;;;563.70;2432.00;;;;;;5100997;28;20077;-76
2023/10/24 09:40:52;;;;;;;14.02;4.82;;;563.90;2432.00;;;;;;5107170;28;20212;-76
2023/10/24 09:43:22;;;;;;;11.05;4.68;;;564.10;2432.00;;;;;;5100645;28;20020;-75
2023/10/24 09:45:51;;;;;;;12.57;4.15;;;564.00;2432.00;;;;;;5098167;28;20038;-76
2023/10/24 09:48:18;;;;;;;11.98;3.80;;;564.10;2432.00;;;;;;5103696;28;20516;-77
2023/10/24 09:50:44;;;;;;;10.43;3.83;;;588.80;2432.00;;;;;;5099483;28;20036;-77
2023/10/24 09:53:11;;;;;;;12.18;4.35;;;589.10;2432.00;;;;;;5095284;28;20119;-77
2023/10/24 09:55:41;;;;;;;6.97;3.30;;;589.10;2432.00;;;;;;5100383;28;20030;-77
2023/10/24 09:58:09;;;;;;;11.88;3.85;;;589.20;2432.00;;;;;;5103430;28;20024;-77
2023/10/24 10:00:35;;;;;;;10.13;3.92;;;589.30;2432.00;;;;;;5103839;28;20055;-77
2023/10/24 10:03:03;;;;;;;11.85;3.53;;;589.50;2432.00;;;;;;5108752;28;20059;-77
2023/10/24 10:05:30;;;;;;;12.20;3.72;;;589.70;2432.00;;;;;;5101074;28;20028;-76
2023/10/24 10:07:58;;;;;;;9.57;3.53;;;589.70;2432.00;;;;;;5098505;28;20047;-77
2023/10/24 10:10:25;;;;;;;11.68;3.60;;;614.50;2406.40;;;;;;5097210;28;20064;-77
2023/10/24 10:13:14;;;;;;;11.93;3.05;;;614.80;2355.20;;;;;;5103290;28;20496;-77
2023/10/24 10:15:54;;;;;;;13.55;3.58;;;614.90;2304.00;;;;;;5102122;28;20035;-76
2023/10/24 10:18:22;;;;;;;11.40;3.40;;;615.00;2252.80;;;;;;5101146;28;20032;-76
2023/10/24 10:21:17;;;;;;;13.07;3.28;;;615.30;2201.60;;;;;;5102492;28;20033;-77
2023/10/24 10:24:14;;;;;;;7.95;3.88;;;640.20;2124.80;;;;;;5119334;28;20035;-78
2023/10/24 10:27:11;;;;;;;24.38;4.80;;;640.30;2099.20;;;;;;5106618;28;20024;-77
2023/10/24 10:29:46;;;;;;;10.15;3.88;;;640.60;2099.20;;;;;;5098318;28;20044;-78
2023/10/24 10:32:29;;;;;;;12.80;3.53;;;640.50;2048.00;;;;;;5099581;28;20113;-77
2023/10/24 10:34:55;;;;;;;11.23;3.25;;;640.70;1996.80;;;;;;5103726;28;20020;-78
2023/10/24 10:37:20;;;;;;;8.57;3.05;;;640.70;1996.80;;;;;;5102346;28;20054;-77
2023/10/24 10:40:14;;;;;;;15.65;3.10;;;640.90;1971.20;;;;;;5097339;28;20086;-79
2023/10/24 10:42:51;;;;;;;15.20;3.58;;;640.90;1920.00;;;;;;5104162;28;20040;-78
2023/10/24 10:45:28;;;;;;;9.70;3.70;;;665.70;1945.60;;;;;;5100573;28;20117;-80
2023/10/24 10:48:04;;;;;;;9.23;3.92;;;665.60;1920.00;;;;;;5096511;28;20020;-79
2023/10/24 10:50:32;;;;;;;10.43;3.10;;;665.70;1894.40;;;;;;5102237;28;20032;-80
2023/10/24 10:53:03;;;;;;;7.88;2.90;;;666.10;1843.20;;;;;;5103113;28;20047;-83
2023/10/24 10:55:35;;;;;;;7.63;2.65;;;666.00;1843.20;;;;;;5097604;28;20027;-76
2023/10/24 10:58:24;;;;;;;10.07;3.92;;;666.00;1817.60;;;;;;5099894;27;20477;-77
2023/10/24 11:01:02;;;;;;;8.82;3.40;;;666.00;1817.60;;;;;;5097029;28;20157;-76
2023/10/24 11:03:36;;;;;;;10.10;4.97;;;666.10;1817.60;;;;;;5104402;28;20094;-76
2023/10/24 11:06:08;;;;;;;17.95;4.53;;;666.20;1817.60;;;;;;5101923;28;20023;-78
2023/10/24 11:08:34;;;;;;;11.10;3.75;;;666.20;1792.00;;;;;;5093742;28;20032;-77
2023/10/24 11:11:00;;;;;;;13.45;4.75;;;666.00;1792.00;;;;;;5101963;28;20020;-76
2023/10/24 11:13:42;;;;;;;9.18;4.88;;;665.80;1817.60;;;;;;5098914;28;20031;-76
2023/10/24 11:16:10;;;;;;;16.52;7.38;;;665.70;1817.60;;;;;;5098853;28;20024;-76
2023/10/24 11:18:37;;;;;;;13.98;8.45;;;665.90;1792.00;;;;;;5102473;28;20103;-76
2023/10/24 11:21:05;;;;;;;22.83;14.95;;;666.10;1792.00;;;;;;5090914;28;20036;-76
2023/10/24 11:23:32;;;;;;;42.38;29.90;;;666.10;1792.00;;;;;;5076527;28;20066;-76
2023/10/24 11:25:59;;;;;;;45.05;32.55;;;666.20;1792.00;;;;;;5101628;28;20020;-76
2023/10/24 11:28:27;;;;;;;42.58;31.02;;;666.40;1766.40;;;;;;5085152;28;20031;-76
2023/10/24 11:30:56;;;;;;;48.25;36.70;;;666.50;1766.40;;;;;;5113052;28;20028;-77
2023/10/24 11:33:23;;;;;;;36.40;25.20;;;666.50;1740.80;;;;;;5107005;28;20143;-77
2023/10/24 11:35:49;;;;;;;26.20;13.77;;;666.50;1766.40;;;;;;5102509;28;20107;-77
2023/10/24 11:38:16;;;;;;;13.57;7.82;;;666.50;1740.80;;;;;;5103329;28;20023;-77
2023/10/24 11:40:46;;;;;;;19.80;8.40;;;666.40;1740.80;;;;;;5106018;28;20153;-77
2023/10/24 11:43:13;;;;;;;15.30;7.10;;;691.20;1715.20;;;;;;5087209;28;20045;-77
2023/10/24 11:45:40;;;;;;;19.48;9.45;;;691.20;1715.20;;;;;;5099607;28;20530;-77
2023/10/24 11:48:06;;;;;;;16.77;10.07;;;691.20;1689.60;;;;;;5103170;28;20393;-77
2023/10/24 11:50:39;;;;;;;19.45;8.18;;;691.20;1664.00;;;;;;5086799;28;20023;-77
2023/10/24 11:53:05;;;;;;;14.43;6.28;;;691.30;1664.00;;;;;;5069059;28;20135;-77
2023/10/24 11:55:31;;;;;;;13.93;7.38;;;691.40;1638.40;;;;;;5064482;28;20197;-77
2023/10/24 11:58:01;;;;;;;21.52;7.68;;;691.40;1638.40;;;;;;5070673;28;20055;-76
2023/10/24 12:00:33;;;;;;;15.00;6.47;;;666.50;1664.00;;;;;;5077188;28;20036;-76
2023/10/24 12:03:05;;;;;;;15.57;6.00;;;666.50;1664.00;;;;;;5080594;28;20040;-76
2023/10/24 12:05:32;;;;;;;17.85;6.68;;;691.20;1638.40;;;;;;5079619;28;20113;-77
2023/10/24 12:07:59;;;;;;;19.13;6.75;;;666.50;1638.40;;;;;;5079550;28;20454;-77
2023/10/24 12:10:30;;;;;;;14.60;6.55;;;666.50;1664.00;;;;;;5073529;28;20111;-76
2023/10/24 12:12:57;;;;;;;17.77;10.05;;;691.20;1664.00;;;;;;5087735;28;20139;-76
2023/10/24 12:15:24;;;;;;;18.70;8.32;;;691.20;1664.00;;;;;;5063539;28;20115;-77
2023/10/24 12:17:50;;;;;;;22.77;10.50;;;666.50;1638.40;;;;;;5082023;28;20082;-76